createdAt,value
2017-02-28T00:00:25.512Z,934.02
2017-02-28T00:01:25.501Z,934.09
2017-02-28T00:02:25.487Z,934.21
2017-02-28T00:03:25.478Z,934.02
2017-02-28T00:04:25.465Z,934.26
2017-02-28T00:05:25.454Z,934.24
2017-02-28T00:06:25.440Z,934.26
2017-02-28T00:07:25.431Z,934.36
2017-02-28T00:08:25.418Z,934.35
2017-02-28T00:09:25.406Z,934.32
2017-02-28T00:10:25.398Z,934.34
2017-02-28T00:11:25.384Z,934.34
2017-02-28T00:12:25.374Z,934.34
2017-02-28T00:13:25.562Z,934.24
2017-02-28T00:14:25.351Z,934.37
2017-02-28T00:15:25.338Z,934.44
2017-02-28T00:16:25.399Z,934.44
2017-02-28T00:17:25.318Z,934.49
2017-02-28T00:18:25.308Z,934.49
2017-02-28T00:19:25.386Z,934.45
2017-02-28T00:20:25.285Z,934.6
2017-02-28T00:21:25.307Z,934.56
2017-02-28T00:22:25.261Z,934.57
2017-02-28T00:23:25.252Z,934.67
2017-02-28T00:24:25.270Z,934.71
2017-02-28T00:25:25.229Z,934.79
2017-02-28T00:26:25.216Z,934.81
2017-02-28T00:27:25.272Z,934.72
2017-02-28T00:28:25.194Z,934.7
2017-02-28T00:29:25.184Z,934.82
2017-02-28T00:30:25.278Z,934.94
2017-02-28T00:31:25.162Z,934.84
2017-02-28T00:32:25.149Z,934.89
2017-02-28T00:33:25.451Z,934.97
2017-02-28T00:34:25.130Z,935.02
2017-02-28T00:35:25.117Z,934.99
2017-02-28T00:36:25.206Z,935.03
2017-02-28T00:37:25.097Z,935.14
2017-02-28T00:38:25.085Z,935.1
2017-02-28T00:39:25.237Z,935.19
2017-02-28T00:40:25.064Z,935.2
2017-02-28T00:41:25.052Z,935.26
2017-02-28T00:42:25.039Z,935.3
2017-02-28T00:43:25.027Z,935.17
2017-02-28T00:44:25.020Z,935.18
2017-02-28T00:45:25.008Z,935.16
2017-02-28T00:46:24.997Z,935.21
2017-02-28T00:47:24.987Z,935.2
2017-02-28T00:48:24.976Z,935.28
2017-02-28T00:49:24.963Z,935.28
2017-02-28T00:50:24.951Z,935.36
2017-02-28T00:51:24.942Z,935.38
2017-02-28T00:52:24.930Z,935.42
2017-02-28T00:53:24.919Z,935.4
2017-02-28T00:54:24.909Z,935.46
2017-02-28T00:55:24.899Z,935.57
2017-02-28T00:56:24.887Z,935.57
2017-02-28T00:57:24.874Z,935.67
2017-02-28T00:58:25.138Z,935.63
2017-02-28T00:59:24.851Z,935.68
2017-02-28T01:00:24.842Z,935.64
2017-02-28T01:01:24.830Z,935.63
2017-02-28T01:02:24.817Z,935.61
2017-02-28T01:03:24.805Z,935.59
2017-02-28T01:04:24.795Z,935.67
2017-02-28T01:05:24.785Z,935.64
2017-02-28T01:06:24.774Z,935.59
2017-02-28T01:07:24.764Z,935.55
2017-02-28T01:08:24.748Z,935.51
2017-02-28T01:09:24.740Z,935.57
2017-02-28T01:10:24.728Z,935.51
2017-02-28T01:11:24.717Z,935.48
2017-02-28T01:12:24.742Z,935.46
2017-02-28T01:13:24.695Z,935.48
2017-02-28T01:14:24.802Z,935.55
2017-02-28T01:15:24.673Z,935.5
2017-02-28T01:16:24.660Z,935.47
2017-02-28T01:17:24.809Z,935.44
2017-02-28T01:18:24.640Z,935.51
2017-02-28T01:19:24.627Z,935.48
2017-02-28T01:20:24.753Z,935.48
2017-02-28T01:21:24.603Z,935.49
2017-02-28T01:22:24.589Z,935.43
2017-02-28T01:23:24.616Z,935.51
2017-02-28T01:24:24.571Z,935.49
2017-02-28T01:25:24.559Z,935.41
2017-02-28T01:26:24.630Z,935.37
2017-02-28T01:27:24.533Z,935.37
2017-02-28T01:28:24.524Z,935.38
2017-02-28T01:29:24.627Z,935.36
2017-02-28T01:30:24.501Z,935.4
2017-02-28T01:31:24.490Z,935.26
2017-02-28T01:32:24.595Z,935.33
2017-02-28T01:33:24.465Z,935.27
2017-02-28T01:34:24.456Z,935.25
2017-02-28T01:35:24.612Z,935.21
2017-02-28T01:36:24.432Z,935.12
2017-02-28T01:37:24.418Z,935.13
2017-02-28T01:38:24.692Z,935.1
2017-02-28T01:39:24.399Z,935.11
2017-02-28T01:40:24.384Z,935.07
2017-02-28T01:41:24.536Z,934.92
2017-02-28T01:42:24.363Z,934.88
2017-02-28T01:43:24.352Z,934.84
2017-02-28T01:44:24.481Z,934.81
2017-02-28T01:45:24.328Z,934.73
2017-02-28T01:46:24.315Z,934.76
2017-02-28T01:47:24.424Z,934.61
2017-02-28T01:48:24.294Z,934.52
2017-02-28T01:49:24.421Z,934.38
2017-02-28T01:50:24.270Z,934.36
2017-02-28T01:51:24.259Z,934.39
2017-02-28T01:52:24.248Z,934.36
2017-02-28T01:53:24.238Z,934.11
2017-02-28T01:54:24.228Z,934.05
2017-02-28T01:55:24.324Z,933.97
2017-02-28T01:56:24.202Z,934.03
2017-02-28T01:57:24.191Z,934.1
2017-02-28T01:58:24.181Z,934.01
2017-02-28T01:59:24.197Z,934.09
2017-02-28T02:00:24.156Z,934.08
2017-02-28T02:01:24.145Z,934.02
2017-02-28T02:02:24.133Z,933.96
2017-02-28T02:03:24.417Z,933.98
2017-02-28T02:04:24.110Z,933.93
2017-02-28T02:05:24.099Z,933.81
2017-02-28T02:06:24.195Z,933.85
2017-02-28T02:07:24.074Z,933.87
2017-02-28T02:08:24.064Z,933.83
2017-02-28T02:09:24.051Z,933.75
2017-02-28T02:10:24.063Z,933.81
2017-02-28T02:11:24.028Z,933.78
2017-02-28T02:12:24.016Z,933.72
2017-02-28T02:13:24.196Z,933.66
2017-02-28T02:14:23.993Z,933.55
2017-02-28T02:15:23.979Z,933.67
2017-02-28T02:16:24.011Z,933.65
2017-02-28T02:17:23.956Z,933.49
2017-02-28T02:18:23.947Z,933.52
2017-02-28T02:19:24.097Z,933.4
2017-02-28T02:20:23.920Z,933.3
2017-02-28T02:21:23.910Z,933.22
2017-02-28T02:22:24.032Z,933.11
2017-02-28T02:23:23.888Z,933.04
2017-02-28T02:24:23.875Z,932.95
2017-02-28T02:25:23.960Z,932.89
2017-02-28T02:26:23.851Z,932.84
2017-02-28T02:27:24.235Z,932.85
2017-02-28T02:28:23.824Z,932.84
2017-02-28T02:29:23.814Z,932.82
2017-02-28T02:30:23.882Z,932.87
2017-02-28T02:31:23.791Z,932.92
2017-02-28T02:32:24.363Z,932.93
2017-02-28T02:33:23.849Z,932.87
2017-02-28T02:34:23.755Z,932.89
2017-02-28T02:35:23.741Z,932.91
2017-02-28T02:36:23.762Z,932.97
2017-02-28T02:37:23.720Z,932.88
2017-02-28T02:38:23.707Z,932.93
2017-02-28T02:39:23.693Z,932.96
2017-02-28T02:40:23.682Z,932.96
2017-02-28T02:41:23.668Z,932.96
2017-02-28T02:42:23.658Z,932.92
2017-02-28T02:43:23.647Z,932.99
2017-02-28T02:44:23.633Z,933
2017-02-28T02:45:23.622Z,932.96
2017-02-28T02:46:23.609Z,932.98
2017-02-28T02:47:23.597Z,932.97
2017-02-28T02:48:23.585Z,933.05
2017-02-28T02:49:23.575Z,932.97
2017-02-28T02:50:23.562Z,933.15
2017-02-28T02:51:23.549Z,933.1
2017-02-28T02:52:23.538Z,933.06
2017-02-28T02:53:23.528Z,933.11
2017-02-28T02:54:23.542Z,932.98
2017-02-28T02:55:23.500Z,932.99
2017-02-28T02:56:23.493Z,933.02
2017-02-28T02:57:23.481Z,933.08
2017-02-28T02:58:23.466Z,932.86
2017-02-28T02:59:23.457Z,932.92
2017-02-28T03:00:23.443Z,932.93
2017-02-28T03:01:23.432Z,932.95
2017-02-28T03:02:23.420Z,932.9
2017-02-28T03:03:23.490Z,932.95
2017-02-28T03:04:23.398Z,932.92
2017-02-28T03:05:23.384Z,932.92
2017-02-28T03:06:23.402Z,932.9
2017-02-28T03:07:23.361Z,932.9
2017-02-28T03:08:23.350Z,932.93
2017-02-28T03:09:23.492Z,932.92
2017-02-28T03:10:23.326Z,932.91
2017-02-28T03:11:23.313Z,932.97
2017-02-28T03:12:23.331Z,932.85
2017-02-28T03:13:23.291Z,932.87
2017-02-28T03:14:23.277Z,932.94
2017-02-28T03:15:23.266Z,932.98
2017-02-28T03:16:23.254Z,932.92
2017-02-28T03:17:23.242Z,932.9
2017-02-28T03:18:23.231Z,932.97
2017-02-28T03:19:23.219Z,932.94
2017-02-28T03:20:23.205Z,932.87
2017-02-28T03:21:23.197Z,932.89
2017-02-28T03:22:23.182Z,932.87
2017-02-28T03:23:23.172Z,932.93
2017-02-28T03:24:23.160Z,932.92
2017-02-28T03:25:23.150Z,933
2017-02-28T03:26:23.135Z,933.11
2017-02-28T03:27:23.125Z,933.23
2017-02-28T03:28:23.118Z,933.29
2017-02-28T03:29:23.102Z,933.22
2017-02-28T03:30:23.089Z,933.32
2017-02-28T03:31:23.078Z,933.35
2017-02-28T03:32:23.069Z,933.43
2017-02-28T03:33:23.058Z,933.37
2017-02-28T03:34:23.045Z,933.45
2017-02-28T03:35:23.032Z,933.52
2017-02-28T03:36:23.019Z,933.59
2017-02-28T03:37:23.011Z,933.55
2017-02-28T03:38:22.995Z,933.58
2017-02-28T03:39:22.984Z,933.59
2017-02-28T03:40:22.973Z,933.55
2017-02-28T03:41:22.962Z,933.58
2017-02-28T03:42:22.948Z,933.57
2017-02-28T03:43:22.939Z,933.68
2017-02-28T03:44:22.926Z,933.69
2017-02-28T03:45:22.916Z,933.78
2017-02-28T03:46:22.903Z,933.84
2017-02-28T03:47:22.890Z,933.84
2017-02-28T03:48:22.878Z,933.92
2017-02-28T03:49:22.864Z,934
2017-02-28T03:50:22.854Z,934.04
2017-02-28T03:51:22.845Z,934.02
2017-02-28T03:52:22.831Z,934.06
2017-02-28T03:53:22.820Z,934.05
2017-02-28T03:54:22.809Z,934.08
2017-02-28T03:55:22.797Z,934.04
2017-02-28T03:56:22.782Z,934.16
2017-02-28T03:57:22.771Z,934.09
2017-02-28T03:58:22.761Z,934.11
2017-02-28T03:59:22.747Z,934.05
2017-02-28T04:00:22.736Z,933.98
2017-02-28T04:01:22.725Z,934.05
2017-02-28T04:02:22.713Z,934.04
2017-02-28T04:03:22.700Z,934.04
2017-02-28T04:04:22.689Z,934.08
2017-02-28T04:05:22.677Z,934.06
2017-02-28T04:06:22.665Z,934.13
2017-02-28T04:07:22.653Z,934.11
2017-02-28T04:08:22.644Z,934.24
2017-02-28T04:09:22.630Z,934.4
2017-02-28T04:10:22.618Z,934.53
2017-02-28T04:11:22.607Z,934.78
2017-02-28T04:12:22.595Z,934.83
2017-02-28T04:13:22.584Z,934.87
2017-02-28T04:14:22.572Z,934.94
2017-02-28T04:15:22.560Z,934.93
2017-02-28T04:16:22.547Z,935.11
2017-02-28T04:17:22.537Z,935.12
2017-02-28T04:18:22.525Z,935.07
2017-02-28T04:19:22.511Z,934.94
2017-02-28T04:20:22.500Z,934.96
2017-02-28T04:21:22.486Z,935.05
2017-02-28T04:22:22.474Z,934.97
2017-02-28T04:23:22.461Z,934.98
2017-02-28T04:24:22.450Z,934.99
2017-02-28T04:25:22.437Z,935.05
2017-02-28T04:26:22.424Z,935.04
2017-02-28T04:27:22.413Z,934.98
2017-02-28T04:28:22.400Z,934.99
2017-02-28T04:29:22.385Z,935.05
2017-02-28T04:30:22.373Z,935.07
2017-02-28T04:31:22.361Z,934.98
2017-02-28T04:32:22.348Z,935.06
2017-02-28T04:33:22.335Z,935.08
2017-02-28T04:34:22.322Z,935.2
2017-02-28T04:35:22.309Z,935.03
2017-02-28T04:36:22.295Z,935.09
2017-02-28T04:37:22.282Z,935.09
2017-02-28T04:38:22.270Z,935.13
2017-02-28T04:39:22.257Z,935.13
2017-02-28T04:40:22.242Z,935.19
2017-02-28T04:41:22.229Z,935.23
2017-02-28T04:42:22.216Z,935.26
2017-02-28T04:43:22.202Z,935.25
2017-02-28T04:44:22.189Z,935.24
2017-02-28T04:45:22.176Z,935.22
2017-02-28T04:46:22.163Z,935.28
2017-02-28T04:47:22.149Z,935.25
2017-02-28T04:48:22.135Z,935.26
2017-02-28T04:49:22.121Z,935.22
2017-02-28T04:50:22.108Z,935.19
2017-02-28T04:51:22.095Z,935.21
2017-02-28T04:52:22.081Z,935.23
2017-02-28T04:53:22.067Z,935.17
2017-02-28T04:54:22.052Z,935.17
2017-02-28T04:55:22.037Z,935.16
2017-02-28T04:56:22.026Z,935.22
2017-02-28T04:57:22.012Z,935.29
2017-02-28T04:58:21.998Z,935.31
2017-02-28T04:59:21.983Z,935.3
2017-02-28T05:00:21.971Z,935.34
2017-02-28T05:01:21.955Z,935.24
2017-02-28T05:02:21.945Z,935.19
2017-02-28T05:03:21.931Z,935.2
2017-02-28T05:04:21.915Z,935.19
2017-02-28T05:05:21.902Z,935.17
2017-02-28T05:06:21.888Z,935.18
2017-02-28T05:07:21.873Z,935.17
2017-02-28T05:08:21.860Z,935.2
2017-02-28T05:09:21.846Z,935.24
2017-02-28T05:10:21.831Z,935.24
2017-02-28T05:11:21.818Z,935.24
2017-02-28T05:12:21.805Z,935.26
2017-02-28T05:13:21.790Z,935.22
2017-02-28T05:14:21.776Z,935.26
2017-02-28T05:15:21.761Z,935.3
2017-02-28T05:16:21.749Z,935.37
2017-02-28T05:17:21.734Z,935.36
2017-02-28T05:18:21.721Z,935.33
2017-02-28T05:19:21.707Z,935.42
2017-02-28T05:20:21.692Z,935.38
2017-02-28T05:21:21.678Z,935.48
2017-02-28T05:22:21.663Z,935.49
2017-02-28T05:23:21.649Z,935.5
2017-02-28T05:24:21.636Z,935.51
2017-02-28T05:25:21.621Z,935.52
2017-02-28T05:26:21.607Z,935.45
2017-02-28T05:27:21.592Z,935.41
2017-02-28T05:28:21.579Z,935.37
2017-02-28T05:29:21.565Z,935.37
2017-02-28T05:30:21.550Z,935.34
2017-02-28T05:31:21.536Z,935.38
2017-02-28T05:32:21.521Z,935.34
2017-02-28T05:33:21.508Z,935.34
2017-02-28T05:34:21.493Z,935.36
2017-02-28T05:35:21.479Z,935.33
2017-02-28T05:36:21.464Z,935.38
2017-02-28T05:37:21.450Z,935.37
2017-02-28T05:38:21.435Z,935.33
2017-02-28T05:39:21.420Z,935.29
2017-02-28T05:40:21.406Z,935.32
2017-02-28T05:41:21.392Z,935.39
2017-02-28T05:42:21.376Z,935.34
2017-02-28T05:43:21.362Z,935.41
2017-02-28T05:44:21.349Z,935.44
2017-02-28T05:45:21.333Z,935.46
2017-02-28T05:46:21.319Z,935.42
2017-02-28T05:47:21.465Z,935.46
2017-02-28T05:48:21.610Z,935.43
2017-02-28T05:49:21.341Z,935.44
2017-02-28T05:50:21.294Z,935.44
2017-02-28T05:51:21.310Z,935.46
2017-02-28T05:52:21.232Z,935.41
2017-02-28T05:53:21.217Z,935.49
2017-02-28T05:54:21.202Z,935.51
2017-02-28T05:55:21.189Z,935.51
2017-02-28T05:56:21.172Z,935.57
2017-02-28T05:57:21.159Z,935.46
2017-02-28T05:58:21.143Z,935.47
2017-02-28T05:59:21.133Z,935.5
2017-02-28T06:00:21.113Z,935.39
2017-02-28T06:01:21.099Z,935.42
2017-02-28T06:02:21.085Z,935.5
2017-02-28T06:03:21.069Z,935.46
2017-02-28T06:04:21.054Z,935.5
2017-02-28T06:05:21.041Z,935.51
2017-02-28T06:06:21.028Z,935.51
2017-02-28T06:07:21.010Z,935.47
2017-02-28T06:08:20.995Z,935.54
2017-02-28T06:09:20.981Z,935.58
2017-02-28T06:10:20.966Z,935.55
2017-02-28T06:11:20.951Z,935.49
2017-02-28T06:12:20.938Z,935.5
2017-02-28T06:13:20.922Z,935.48
2017-02-28T06:14:20.908Z,935.48
2017-02-28T06:15:20.892Z,935.5
2017-02-28T06:16:20.878Z,935.47
2017-02-28T06:17:20.861Z,935.52
2017-02-28T06:18:20.848Z,935.55
2017-02-28T06:19:20.833Z,935.49
2017-02-28T06:20:20.816Z,935.45
2017-02-28T06:21:20.801Z,935.39
2017-02-28T06:22:20.788Z,935.4
2017-02-28T06:23:20.879Z,935.45
2017-02-28T06:24:20.757Z,935.42
2017-02-28T06:25:20.744Z,935.44
2017-02-28T06:26:20.726Z,935.4
2017-02-28T06:27:20.712Z,935.52
2017-02-28T06:28:20.699Z,935.42
2017-02-28T06:29:20.681Z,935.41
2017-02-28T06:30:20.667Z,935.46
2017-02-28T06:31:20.652Z,935.46
2017-02-28T06:32:20.638Z,935.49
2017-02-28T06:33:20.620Z,935.45
2017-02-28T06:34:20.605Z,935.46
2017-02-28T06:35:20.591Z,935.46
2017-02-28T06:36:20.577Z,935.57
2017-02-28T06:37:20.562Z,935.54
2017-02-28T06:38:20.548Z,935.49
2017-02-28T06:39:20.532Z,935.51
2017-02-28T06:40:20.517Z,935.46
2017-02-28T06:41:20.502Z,935.45
2017-02-28T06:42:20.488Z,935.52
2017-02-28T06:43:20.472Z,935.45
2017-02-28T06:44:20.456Z,935.51
2017-02-28T06:45:20.442Z,935.45
2017-02-28T06:46:20.427Z,935.44
2017-02-28T06:47:20.410Z,935.46
2017-02-28T06:48:20.400Z,935.44
2017-02-28T06:49:20.381Z,935.45
2017-02-28T06:50:20.368Z,935.48
2017-02-28T06:51:20.350Z,935.54
2017-02-28T06:52:20.337Z,935.5
2017-02-28T06:53:20.321Z,935.52
2017-02-28T06:54:20.308Z,935.49
2017-02-28T06:55:20.290Z,935.33
2017-02-28T06:56:20.276Z,935.28
2017-02-28T06:57:20.261Z,935.27
2017-02-28T06:58:20.245Z,935.22
2017-02-28T06:59:20.231Z,935.26
2017-02-28T07:00:20.223Z,935.26
2017-02-28T07:01:20.209Z,935.34
2017-02-28T07:02:20.187Z,935.41
2017-02-28T07:03:20.176Z,935.38
2017-02-28T07:04:20.167Z,935.39
2017-02-28T07:05:20.151Z,935.42
2017-02-28T07:06:20.128Z,935.22
2017-02-28T07:07:20.111Z,935.28
2017-02-28T07:08:20.098Z,935.12
2017-02-28T07:09:20.081Z,935.21
2017-02-28T07:10:20.075Z,935.27
2017-02-28T07:11:20.062Z,935.19
2017-02-28T07:12:20.046Z,935.21
2017-02-28T07:13:20.026Z,935.26
2017-02-28T07:14:20.008Z,935.29
2017-02-28T07:15:19.993Z,935.35
2017-02-28T07:16:19.979Z,935.27
2017-02-28T07:17:19.962Z,935.3
2017-02-28T07:18:19.950Z,935.3
2017-02-28T07:19:19.932Z,935.2
2017-02-28T07:20:19.974Z,935.23
2017-02-28T07:21:19.903Z,934.98
2017-02-28T07:22:19.889Z,935.15
2017-02-28T07:23:19.873Z,935.11
2017-02-28T07:24:19.859Z,935.18
2017-02-28T07:25:19.843Z,935.1
2017-02-28T07:26:19.829Z,935.06
2017-02-28T07:27:19.815Z,935.15
2017-02-28T07:28:19.799Z,935.29
2017-02-28T07:29:19.785Z,935.34
2017-02-28T07:30:19.769Z,935.3
2017-02-28T07:31:19.755Z,935.35
2017-02-28T07:32:19.739Z,935.34
2017-02-28T07:33:19.725Z,935.44
2017-02-28T07:34:19.711Z,935.44
2017-02-28T07:35:19.695Z,935.5
2017-02-28T07:36:19.681Z,935.41
2017-02-28T07:37:19.665Z,935.56
2017-02-28T07:38:19.652Z,935.49
2017-02-28T07:39:19.636Z,935.5
2017-02-28T07:40:19.621Z,935.34
2017-02-28T07:41:19.608Z,935.24
2017-02-28T07:42:19.591Z,935.25
2017-02-28T07:43:19.577Z,935.3
2017-02-28T07:44:19.563Z,935.32
2017-02-28T07:45:19.547Z,935.3
2017-02-28T07:46:19.532Z,935.11
2017-02-28T07:47:19.518Z,935.03
2017-02-28T07:48:19.503Z,934.97
2017-02-28T07:49:19.488Z,934.94
2017-02-28T07:50:19.477Z,934.93
2017-02-28T07:51:19.459Z,934.83
2017-02-28T07:52:19.443Z,934.73
2017-02-28T07:53:19.429Z,934.69
2017-02-28T07:54:19.414Z,934.71
2017-02-28T07:55:19.401Z,934.71
2017-02-28T07:56:19.386Z,934.51
2017-02-28T07:57:19.369Z,934.57
2017-02-28T07:58:19.356Z,934.53
2017-02-28T07:59:19.342Z,934.45
2017-02-28T08:00:19.327Z,934.43
2017-02-28T08:01:19.311Z,934.54
2017-02-28T08:02:19.297Z,934.67
2017-02-28T08:03:19.294Z,934.78
2017-02-28T08:04:19.269Z,934.77
2017-02-28T08:05:19.254Z,935.08
2017-02-28T08:06:19.241Z,935.37
2017-02-28T08:07:19.224Z,935.36
2017-02-28T08:08:19.210Z,935.64
2017-02-28T08:09:19.196Z,935.73
2017-02-28T08:10:19.183Z,935.64
2017-02-28T08:11:19.170Z,935.47
2017-02-28T08:12:19.155Z,935.74
2017-02-28T08:13:19.140Z,935.93
2017-02-28T08:14:19.127Z,935.95
2017-02-28T08:15:19.110Z,935.75
2017-02-28T08:16:19.097Z,935.74
2017-02-28T08:17:19.084Z,935.89
2017-02-28T08:18:19.069Z,935.82
2017-02-28T08:19:19.053Z,935.78
2017-02-28T08:20:19.040Z,935.75
2017-02-28T08:21:19.026Z,935.65
2017-02-28T08:22:19.009Z,935.67
2017-02-28T08:23:18.996Z,935.69
2017-02-28T08:24:18.983Z,935.76
2017-02-28T08:25:18.968Z,935.91
2017-02-28T08:26:18.952Z,935.88
2017-02-28T08:27:18.938Z,935.86
2017-02-28T08:28:18.925Z,935.81
2017-02-28T08:29:18.911Z,935.74
2017-02-28T08:30:18.896Z,935.83
2017-02-28T08:31:18.882Z,935.88
2017-02-28T08:32:18.867Z,935.83
2017-02-28T08:33:18.852Z,935.74
2017-02-28T08:34:18.838Z,935.83
2017-02-28T08:35:18.824Z,935.82
2017-02-28T08:36:18.811Z,935.91
2017-02-28T08:37:18.795Z,935.87
2017-02-28T08:38:18.781Z,935.85
2017-02-28T08:39:18.768Z,935.91
2017-02-28T08:40:18.753Z,935.96
2017-02-28T08:41:18.739Z,935.98
2017-02-28T08:42:18.724Z,936.14
2017-02-28T08:43:18.709Z,936.04
2017-02-28T08:44:18.696Z,936.01
2017-02-28T08:45:18.681Z,935.98
2017-02-28T08:46:18.666Z,936.02
2017-02-28T08:47:18.653Z,935.97
2017-02-28T08:48:18.688Z,936.11
2017-02-28T08:49:18.624Z,935.92
2017-02-28T08:50:18.609Z,935.94
2017-02-28T08:51:18.596Z,935.99
2017-02-28T08:52:18.580Z,936.12
2017-02-28T08:53:18.566Z,936.13
2017-02-28T08:54:18.552Z,936.07
2017-02-28T08:55:18.537Z,936.03
2017-02-28T08:56:18.524Z,935.93
2017-02-28T08:57:18.508Z,935.82
2017-02-28T08:58:18.496Z,935.86
2017-02-28T08:59:18.478Z,935.95
2017-02-28T09:00:18.466Z,935.9
2017-02-28T09:01:18.450Z,935.86
2017-02-28T09:02:18.438Z,935.92
2017-02-28T09:03:18.422Z,935.9
2017-02-28T09:04:18.408Z,935.97
2017-02-28T09:05:18.395Z,936.01
2017-02-28T09:06:18.379Z,935.95
2017-02-28T09:07:18.365Z,935.93
2017-02-28T09:08:18.351Z,935.96
2017-02-28T09:09:18.337Z,936.03
2017-02-28T09:10:18.322Z,936.02
2017-02-28T09:11:18.308Z,936
2017-02-28T09:12:18.294Z,935.95
2017-02-28T09:13:18.279Z,936.01
2017-02-28T09:14:18.264Z,935.99
2017-02-28T09:15:18.250Z,936.05
2017-02-28T09:16:18.237Z,936.19
2017-02-28T09:17:18.221Z,936.17
2017-02-28T09:18:18.206Z,936.21
2017-02-28T09:19:18.193Z,936.19
2017-02-28T09:20:18.179Z,936.09
2017-02-28T09:21:18.163Z,936.12
2017-02-28T09:22:18.154Z,936.1
2017-02-28T09:23:18.135Z,936.09
2017-02-28T09:24:18.125Z,936.05
2017-02-28T09:25:18.105Z,936.08
2017-02-28T09:26:18.092Z,936.14
2017-02-28T09:27:18.078Z,936.14
2017-02-28T09:28:18.064Z,936.17
2017-02-28T09:29:18.050Z,936.1
2017-02-28T09:30:18.084Z,936.14
2017-02-28T09:31:18.021Z,936.13
2017-02-28T09:32:18.007Z,936.09
2017-02-28T09:33:17.995Z,936.06
2017-02-28T09:34:17.978Z,936.07
2017-02-28T09:35:17.964Z,936.07
2017-02-28T09:36:17.950Z,935.92
2017-02-28T09:37:17.936Z,935.96
2017-02-28T09:38:17.922Z,935.92
2017-02-28T09:39:17.907Z,935.89
2017-02-28T09:40:17.893Z,935.99
2017-02-28T09:41:17.879Z,936.02
2017-02-28T09:42:17.865Z,936.02
2017-02-28T09:43:17.850Z,935.97
2017-02-28T09:44:17.836Z,935.95
2017-02-28T09:45:17.823Z,935.93
2017-02-28T09:46:17.809Z,935.95
2017-02-28T09:47:17.794Z,935.89
2017-02-28T09:48:17.782Z,935.81
2017-02-28T09:49:17.768Z,935.74
2017-02-28T09:50:17.753Z,935.78
2017-02-28T09:51:17.739Z,935.74
2017-02-28T09:52:17.726Z,935.76
2017-02-28T09:53:17.714Z,935.81
2017-02-28T09:54:17.697Z,935.76
2017-02-28T09:55:17.685Z,935.8
2017-02-28T09:56:17.672Z,935.69
2017-02-28T09:57:17.656Z,935.74
2017-02-28T09:58:17.644Z,935.7
2017-02-28T09:59:17.629Z,935.78
2017-02-28T10:00:17.616Z,935.74
2017-02-28T10:01:17.605Z,935.67
2017-02-28T10:02:17.591Z,935.71
2017-02-28T10:03:17.577Z,935.64
2017-02-28T10:04:17.564Z,935.64
2017-02-28T10:05:17.549Z,935.64
2017-02-28T10:06:17.537Z,935.62
2017-02-28T10:07:17.524Z,935.55
2017-02-28T10:08:17.510Z,935.63
2017-02-28T10:09:17.496Z,935.75
2017-02-28T10:10:17.483Z,935.66
2017-02-28T10:11:17.472Z,935.72
2017-02-28T10:12:17.458Z,935.74
2017-02-28T10:13:17.444Z,935.59
2017-02-28T10:14:17.431Z,935.56
2017-02-28T10:15:17.418Z,935.58
2017-02-28T10:16:17.406Z,935.53
2017-02-28T10:17:17.392Z,935.5
2017-02-28T10:18:17.379Z,935.63
2017-02-28T10:19:17.366Z,935.51
2017-02-28T10:20:17.354Z,935.59
2017-02-28T10:21:17.341Z,935.56
2017-02-28T10:22:17.330Z,935.58
2017-02-28T10:23:17.316Z,935.61
2017-02-28T10:24:17.303Z,935.63
2017-02-28T10:25:17.292Z,935.63
2017-02-28T10:26:17.279Z,935.66
2017-02-28T10:27:17.267Z,935.68
2017-02-28T10:28:17.253Z,935.7
2017-02-28T10:29:17.241Z,935.79
2017-02-28T10:30:17.228Z,935.81
2017-02-28T10:31:17.216Z,935.7
2017-02-28T10:32:17.204Z,935.69
2017-02-28T10:33:17.192Z,935.8
2017-02-28T10:34:17.179Z,935.74
2017-02-28T10:35:17.167Z,935.68
2017-02-28T10:36:17.155Z,935.66
2017-02-28T10:37:17.142Z,935.65
2017-02-28T10:38:17.129Z,935.67
2017-02-28T10:39:17.118Z,935.6
2017-02-28T10:40:17.106Z,935.63
2017-02-28T10:41:17.093Z,935.59
2017-02-28T10:42:17.081Z,935.61
2017-02-28T10:43:17.069Z,935.64
2017-02-28T10:44:17.055Z,935.56
2017-02-28T10:45:17.043Z,935.49
2017-02-28T10:46:17.032Z,935.52
2017-02-28T10:47:17.079Z,935.5
2017-02-28T10:48:17.008Z,935.42
2017-02-28T10:49:16.995Z,935.42
2017-02-28T10:50:16.983Z,935.39
2017-02-28T10:51:16.972Z,935.4
2017-02-28T10:52:16.958Z,935.32
2017-02-28T10:53:16.948Z,935.28
2017-02-28T10:54:16.936Z,935.32
2017-02-28T10:55:16.923Z,935.42
2017-02-28T10:56:16.910Z,935.41
2017-02-28T10:57:16.906Z,935.28
2017-02-28T10:58:16.886Z,935.37
2017-02-28T10:59:16.875Z,935.32
2017-02-28T11:00:16.861Z,935.24
2017-02-28T11:01:16.849Z,935.32
2017-02-28T11:02:16.839Z,935.42
2017-02-28T11:03:16.825Z,935.48
2017-02-28T11:04:16.814Z,935.52
2017-02-28T11:05:16.800Z,935.45
2017-02-28T11:06:16.790Z,935.47
2017-02-28T11:07:16.776Z,935.52
2017-02-28T11:08:16.763Z,935.41
2017-02-28T11:09:16.753Z,935.43
2017-02-28T11:10:16.740Z,935.35
2017-02-28T11:11:16.730Z,935.2
2017-02-28T11:12:16.717Z,935.22
2017-02-28T11:13:16.704Z,935.23
2017-02-28T11:14:16.692Z,935.3
2017-02-28T11:15:16.677Z,935.35
2017-02-28T11:16:16.666Z,935.39
2017-02-28T11:17:16.655Z,935.38
2017-02-28T11:18:16.641Z,935.34
2017-02-28T11:19:16.629Z,935.32
2017-02-28T11:20:16.617Z,935.34
2017-02-28T11:21:16.606Z,935.39
2017-02-28T11:22:16.594Z,935.19
2017-02-28T11:23:16.580Z,935.09
2017-02-28T11:24:16.570Z,934.99
2017-02-28T11:25:16.558Z,934.98
2017-02-28T11:26:16.545Z,934.93
2017-02-28T11:27:16.534Z,934.97
2017-02-28T11:28:16.521Z,935.03
2017-02-28T11:29:16.508Z,935.1
2017-02-28T11:30:16.496Z,935.24
2017-02-28T11:31:16.483Z,935.09
2017-02-28T11:32:16.472Z,935.05
2017-02-28T11:33:16.459Z,934.91
2017-02-28T11:34:16.447Z,934.98
2017-02-28T11:35:16.435Z,934.97
2017-02-28T11:36:16.422Z,934.98
2017-02-28T11:37:16.410Z,934.97
2017-02-28T11:38:16.399Z,934.84
2017-02-28T11:39:16.388Z,934.82
2017-02-28T11:40:16.374Z,934.85
2017-02-28T11:41:16.361Z,934.75
2017-02-28T11:42:16.352Z,934.73
2017-02-28T11:43:16.336Z,934.75
2017-02-28T11:44:16.325Z,934.74
2017-02-28T11:45:16.312Z,934.65
2017-02-28T11:46:16.301Z,934.64
2017-02-28T11:47:16.287Z,934.64
2017-02-28T11:48:16.276Z,934.55
2017-02-28T11:49:16.264Z,934.62
2017-02-28T11:50:16.252Z,934.45
2017-02-28T11:51:16.239Z,934.42
2017-02-28T11:52:16.227Z,934.38
2017-02-28T11:53:16.216Z,934.36
2017-02-28T11:54:16.201Z,934.39
2017-02-28T11:55:16.190Z,934.36
2017-02-28T11:56:16.179Z,934.35
2017-02-28T11:57:16.166Z,934.24
2017-02-28T11:58:16.153Z,934.28
2017-02-28T11:59:16.142Z,934.38
2017-02-28T12:00:16.130Z,934.44
2017-02-28T12:01:16.117Z,934.51
2017-02-28T12:02:16.104Z,934.54
2017-02-28T12:03:16.091Z,934.56
2017-02-28T12:04:16.080Z,934.52
2017-02-28T12:05:16.067Z,934.52
2017-02-28T12:06:16.056Z,934.52
2017-02-28T12:07:16.043Z,934.53
2017-02-28T12:08:16.030Z,934.51
2017-02-28T12:09:16.018Z,934.55
2017-02-28T12:10:16.005Z,934.55
2017-02-28T12:11:15.993Z,934.56
2017-02-28T12:12:15.981Z,934.65
2017-02-28T12:13:15.968Z,934.64
2017-02-28T12:14:15.956Z,934.6
2017-02-28T12:15:15.946Z,934.53
2017-02-28T12:16:15.931Z,934.39
2017-02-28T12:17:15.920Z,934.4
2017-02-28T12:18:15.907Z,934.37
2017-02-28T12:19:15.909Z,934.42
2017-02-28T12:20:15.883Z,934.49
2017-02-28T12:21:15.870Z,934.56
2017-02-28T12:22:15.858Z,934.53
2017-02-28T12:23:15.846Z,934.52
2017-02-28T12:24:15.832Z,934.5
2017-02-28T12:25:15.820Z,934.44
2017-02-28T12:26:15.809Z,934.42
2017-02-28T12:27:15.796Z,934.26
2017-02-28T12:28:15.783Z,934.29
2017-02-28T12:29:15.772Z,934.28
2017-02-28T12:30:15.759Z,934.3